Time;durP1;ratioP1;P1;durP2;ratioP2;P2;SDS_P1;SDS_P2;PMS_P1;PMS_P2;Temp;Humidity;BMP_temperature;BMP_pressure;BME280_temperature;BME280_humidity;BME280_pressure;Samples;Min_cycle;Max_cycle;Signal;HPM_P1;HPM_P2
2023/02/06 06:54:37;;;;;;;8.85;3.60;;;;;;;;;;10666028;27;20410;-82
2023/02/06 06:59:38;;;;;;;8.88;3.67;;;;;;;;;;10634497;28;20054;-83
2023/02/06 07:04:40;;;;;;;;;;;;;;;;;;10643066;27;20029;-83
2023/02/06 07:09:41;;;;;;;7.70;3.22;;;;;;;;;;10640465;28;19914;-82
2023/02/06 07:14:42;;;;;;;11.88;4.90;;;;;;;;;;10649235;28;20027;-82
2023/02/06 07:19:46;;;;;;;7.07;3.65;;;;;;;;;;10650646;28;20027;-83
2023/02/06 07:24:48;;;;;;;6.07;3.63;;;;;;;;;;10647776;28;20027;-83
2023/02/06 07:29:49;;;;;;;5.90;3.20;;;;;;;;;;10641334;28;20079;-82
2023/02/06 07:34:49;;;;;;;9.27;5.15;;;;;;;;;;10646845;28;20041;-82
2023/02/06 07:39:51;;;;;;;7.28;3.85;;;;;;;;;;10637551;27;20032;-82
2023/02/06 07:44:52;;;;;;;10.75;4.82;;;;;;;;;;10633030;28;20051;-81
2023/02/06 07:49:53;;;;;;;;;;;;;;;;;;10647169;28;20458;-82
2023/02/06 07:54:54;;;;;;;8.27;4.68;;;;;;;;;;10632259;28;19907;-82
2023/02/06 07:59:55;;;;;;;9.05;4.60;;;;;;;;;;10633773;28;20176;-78
2023/02/06 08:04:56;;;;;;;;;;;;;;;;;;10602611;28;20042;-82
2023/02/06 08:09:57;;;;;;;11.73;6.07;;;;;;;;;;10612126;28;19974;-82
2023/02/06 08:14:58;;;;;;;;;;;;;;;;;;10605137;28;20024;-84
2023/02/06 08:19:59;;;;;;;14.18;7.07;;;;;;;;;;10597243;28;19908;-84
2023/02/06 08:25:00;;;;;;;;;;;;;;;;;;10596398;28;20024;-83
2023/02/06 08:36:07;;;;;;;13.15;7.57;;;;;;;;;;10601632;28;20032;-83
2023/02/06 08:46:55;;;;;;;16.27;10.10;;;;;;;;;;10616900;28;20036;-82
2023/02/06 08:52:06;;;;;;;17.77;10.30;;;;;;;;;;10610043;28;20031;-82
2023/02/06 08:57:08;;;;;;;14.23;8.60;;;;;;;;;;10592704;28;20035;-83
2023/02/06 09:02:10;;;;;;;13.88;8.63;;;;;;;;;;10591997;28;20027;-83
2023/02/06 09:07:11;;;;;;;15.25;8.50;;;;;;;;;;10592257;28;20027;-83
2023/02/06 09:12:12;;;;;;;12.23;7.32;;;;;;;;;;10592307;28;20035;-83
2023/02/06 09:17:13;;;;;;;14.05;7.03;;;;;;;;;;10590936;28;20173;-81
2023/02/06 09:22:14;;;;;;;;;;;;;;;;;;10589365;28;20032;-81
2023/02/06 09:27:16;;;;;;;10.57;6.32;;;;;;;;;;10591565;28;20380;-82
2023/02/06 09:32:16;;;;;;;;;;;;;;;;;;10595219;28;20035;-84
2023/02/06 09:37:17;;;;;;;12.27;7.80;;;;;;;;;;10616419;28;20023;-83
2023/02/06 09:42:18;;;;;;;;;;;;;;;;;;10598659;28;20027;-82
2023/02/06 09:47:19;;;;;;;10.10;5.53;;;;;;;;;;10595469;28;20357;-82
2023/02/06 09:52:20;;;;;;;9.55;5.20;;;;;;;;;;10590457;28;20408;-84
2023/02/06 09:57:34;;;;;;;9.55;5.53;;;;;;;;;;10593026;28;20114;-83
2023/02/06 10:02:35;;;;;;;8.23;4.80;;;;;;;;;;10613889;28;20048;-81
2023/02/06 10:07:56;;;;;;;8.88;5.10;;;;;;;;;;10602454;28;20073;-83
2023/02/06 10:13:04;;;;;;;8.40;5.03;;;;;;;;;;10595391;28;20503;-83
2023/02/06 10:18:09;;;;;;;9.30;4.68;;;;;;;;;;10588955;28;20022;-83
2023/02/06 10:23:13;;;;;;;9.77;4.90;;;;;;;;;;10590347;28;20024;-84
2023/02/06 10:28:18;;;;;;;9.02;4.93;;;;;;;;;;10590162;28;20076;-83
2023/02/06 10:33:39;;;;;;;7.63;4.63;;;;;;;;;;10591281;28;20053;-83
2023/02/06 10:39:00;;;;;;;10.00;5.70;;;;;;;;;;10592625;28;20112;-83
2023/02/06 10:44:08;;;;;;;8.85;5.05;;;;;;;;;;10592306;28;20032;-83
2023/02/06 10:49:09;;;;;;;8.52;5.18;;;;;;;;;;10592308;28;20020;-82
2023/02/06 10:54:10;;;;;;;;;;;;;;;;;;10591698;28;20043;-82
2023/02/06 10:59:21;;;;;;;6.78;4.20;;;;;;;;;;10591472;28;20417;-82
2023/02/06 11:04:38;;;;;;;12.52;5.40;;;;;;;;;;10592748;28;20038;-82
2023/02/06 11:09:40;;;;;;;10.27;6.05;;;;;;;;;;10597726;28;20020;-80
2023/02/06 11:14:41;;;;;;;8.82;5.00;;;;;;;;;;10599060;28;20024;-83
2023/02/06 11:19:45;;;;;;;;;;;;;;;;;;10601294;28;20099;-81
2023/02/06 11:25:00;;;;;;;11.00;6.90;;;;;;;;;;10624949;28;19892;-81
2023/02/06 11:30:09;;;;;;;13.32;5.97;;;;;;;;;;10594122;28;20028;-82
2023/02/06 11:35:29;;;;;;;8.20;4.60;;;;;;;;;;10587071;28;20043;-83
2023/02/06 11:40:30;;;;;;;8.20;5.00;;;;;;;;;;10593239;28;20133;-82
2023/02/06 11:45:46;;;;;;;10.05;4.80;;;;;;;;;;10577856;28;20055;-83
2023/02/06 11:50:53;;;;;;;10.32;5.60;;;;;;;;;;10594882;28;20042;-82
2023/02/06 11:56:19;;;;;;;11.73;6.18;;;;;;;;;;10595726;28;20031;-82
2023/02/06 12:01:21;;;;;;;11.05;5.55;;;;;;;;;;10591018;28;20027;-82
2023/02/06 12:06:26;;;;;;;9.35;4.90;;;;;;;;;;10592099;28;20032;-82
2023/02/06 12:11:31;;;;;;;8.55;4.57;;;;;;;;;;10594066;28;20050;-81
2023/02/06 12:16:38;;;;;;;9.35;4.78;;;;;;;;;;10594218;28;20046;-81
2023/02/06 12:27:27;;;;;;;9.05;4.40;;;;;;;;;;10549504;28;20043;-82
2023/02/06 12:32:54;;;;;;;8.35;4.28;;;;;;;;;;10598249;28;20035;-82
2023/02/06 12:38:46;;;;;;;9.98;5.00;;;;;;;;;;10689299;27;20023;-80
2023/02/06 12:43:51;;;;;;;10.00;5.22;;;;;;;;;;10587181;27;20066;-81
2023/02/06 12:49:00;;;;;;;10.93;4.47;;;;;;;;;;10686982;27;20034;-82
2023/02/06 12:54:15;;;;;;;13.35;6.97;;;;;;;;;;10658976;27;20039;-82
2023/02/06 12:59:36;;;;;;;7.45;4.15;;;;;;;;;;10658450;27;20365;-81
2023/02/06 13:04:37;;;;;;;11.07;5.25;;;;;;;;;;10658705;27;20219;-82
2023/02/06 13:10:03;;;;;;;14.02;6.50;;;;;;;;;;10661574;27;20018;-81
2023/02/06 13:15:06;;;;;;;9.68;5.03;;;;;;;;;;10688928;27;20053;-80
2023/02/06 13:20:12;;;;;;;10.25;6.43;;;;;;;;;;10657940;27;20026;-80
2023/02/06 13:25:28;;;;;;;10.75;6.78;;;;;;;;;;10656609;27;20022;-81
2023/02/06 13:30:29;;;;;;;15.55;8.95;;;;;;;;;;10675611;27;20023;-82
2023/02/06 13:35:30;;;;;;;;;;;;;;;;;;10657639;27;20027;-82
2023/02/06 13:40:34;;;;;;;15.05;9.68;;;;;;;;;;10657090;27;19906;-82
2023/02/06 13:45:47;;;;;;;14.10;7.75;;;;;;;;;;10656078;27;20026;-82
2023/02/06 13:51:00;;;;;;;13.05;7.97;;;;;;;;;;10675108;27;20030;-82
2023/02/06 13:56:14;;;;;;;15.80;10.48;;;;;;;;;;10680337;27;20065;-80
2023/02/06 14:01:19;;;;;;;13.90;8.13;;;;;;;;;;10662676;27;20027;-80
2023/02/06 14:06:29;;;;;;;14.57;8.23;;;;;;;;;;10663196;27;20484;-82
2023/02/06 14:17:32;;;;;;;14.43;8.60;;;;;;;;;;10674095;27;20031;-81
2023/02/06 14:22:52;;;;;;;11.52;6.85;;;;;;;;;;10654844;27;20026;-81
2023/02/06 14:28:11;;;;;;;13.88;7.95;;;;;;;;;;10654423;27;20070;-80
2023/02/06 14:33:30;;;;;;;11.02;6.78;;;;;;;;;;10653246;27;20086;-82
2023/02/06 14:38:50;;;;;;;8.75;6.05;;;;;;;;;;10653514;27;20459;-80
2023/02/06 14:43:51;;;;;;;9.00;6.40;;;;;;;;;;10655106;27;20026;-83
2023/02/06 14:48:52;;;;;;;;;;;;;;;;;;10671558;27;20019;-80
2023/02/06 14:54:01;;;;;;;16.27;9.57;;;;;;;;;;10653992;27;19911;-83
2023/02/06 14:59:15;;;;;;;11.15;5.90;;;;;;;;;;10670762;27;20056;-80
2023/02/06 15:04:18;;;;;;;11.63;6.13;;;;;;;;;;10679472;27;20092;-81
2023/02/06 15:09:33;;;;;;;9.93;5.53;;;;;;;;;;10662217;27;20109;-82
2023/02/06 15:14:34;;;;;;;9.23;6.15;;;;;;;;;;10679631;27;20027;-82
2023/02/06 15:19:38;;;;;;;11.32;5.43;;;;;;;;;;10698200;27;20078;-81
2023/02/06 15:24:39;;;;;;;;;;;;;;;;;;10663802;27;20058;-83
2023/02/06 15:29:40;;;;;;;9.13;5.95;;;;;;;;;;10661939;27;19910;-82
2023/02/06 15:34:43;;;;;;;10.07;5.07;;;;;;;;;;10679613;27;20027;-82
2023/02/06 15:39:44;;;;;;;8.57;5.10;;;;;;;;;;10680134;27;20436;-82
2023/02/06 15:44:46;;;;;;;;;;;;;;;;;;10661553;27;20037;-82
2023/02/06 15:49:49;;;;;;;8.40;4.72;;;;;;;;;;10659308;27;19993;-82
2023/02/06 15:54:56;;;;;;;8.30;4.80;;;;;;;;;;10660529;27;20496;-82
2023/02/06 15:59:57;;;;;;;10.35;5.72;;;;;;;;;;10680233;27;20026;-83
2023/02/06 16:04:59;;;;;;;7.90;4.70;;;;;;;;;;10662067;27;20031;-84
2023/02/06 16:10:03;;;;;;;11.25;5.40;;;;;;;;;;10680749;27;20023;-83
2023/02/06 16:15:23;;;;;;;16.70;9.95;;;;;;;;;;10671048;27;20035;-83
2023/02/06 16:20:45;;;;;;;9.68;4.65;;;;;;;;;;10669071;27;20094;-83
2023/02/06 16:25:48;;;;;;;7.90;4.70;;;;;;;;;;10685853;27;20460;-83
2023/02/06 16:30:54;;;;;;;11.90;7.60;;;;;;;;;;10658113;27;20029;-83
2023/02/06 16:35:55;;;;;;;10.75;7.47;;;;;;;;;;10661656;27;20014;-82
2023/02/06 16:40:57;;;;;;;;;;;;;;;;;;10664813;27;20034;-83
2023/02/06 16:46:00;;;;;;;8.98;4.35;;;;;;;;;;10658565;27;19903;-82
2023/02/06 16:51:01;;;;;;;10.02;5.00;;;;;;;;;;10661797;27;20031;-82
2023/02/06 16:56:21;;;;;;;;;;;;;;;;;;10703721;27;20476;-81
2023/02/06 17:02:00;;;;;;;8.13;4.50;;;;;;;;;;10659754;27;20237;-82
2023/02/06 17:07:09;;;;;;;8.77;5.20;;;;;;;;;;10641476;27;20042;-80
2023/02/06 17:12:20;;;;;;;11.15;6.60;;;;;;;;;;10656481;27;20031;-80
2023/02/06 17:17:21;;;;;;;9.77;5.10;;;;;;;;;;10658744;27;20115;-78
2023/02/06 17:22:23;;;;;;;12.13;6.65;;;;;;;;;;10660553;27;20053;-79
2023/02/06 17:27:24;;;;;;;14.70;7.75;;;;;;;;;;10673993;27;20022;-80
2023/02/06 17:32:25;;;;;;;9.60;5.88;;;;;;;;;;10683461;27;20061;-80
2023/02/06 17:37:26;;;;;;;;;;;;;;;;;;10699888;27;20034;-80
2023/02/06 17:42:27;;;;;;;10.27;5.78;;;;;;;;;;10680676;27;19907;-79
2023/02/06 17:47:28;;;;;;;7.50;4.80;;;;;;;;;;10682038;27;20472;-80
2023/02/06 17:52:32;;;;;;;;;;;;;;;;;;10671897;22;20040;-83
2023/02/06 17:57:36;;;;;;;10.68;4.90;;;;;;;;;;10595666;28;20391;-84
2023/02/06 18:02:38;;;;;;;12.18;6.60;;;;;;;;;;10590157;28;20032;-83
2023/02/06 18:07:39;;;;;;;;;;;;;;;;;;10592623;28;20031;-84
2023/02/06 18:12:40;;;;;;;11.15;5.80;;;;;;;;;;10589498;28;19915;-84
2023/02/06 18:17:41;;;;;;;;;;;;;;;;;;10610636;28;20032;-84
2023/02/06 18:22:42;;;;;;;8.95;5.28;;;;;;;;;;10587406;28;19911;-84
2023/02/06 18:27:44;;;;;;;;;;;;;;;;;;10583013;28;20067;-83
2023/02/06 18:32:45;;;;;;;9.18;5.72;;;;;;;;;;10591550;28;19958;-83
2023/02/06 18:37:48;;;;;;;10.20;6.50;;;;;;;;;;10589633;28;20019;-83
2023/02/06 18:42:55;;;;;;;12.77;8.85;;;;;;;;;;10590564;28;20083;-84
2023/02/06 18:48:13;;;;;;;9.77;7.88;;;;;;;;;;10624011;28;20042;-82
2023/02/06 18:53:14;;;;;;;;;;;;;;;;;;10600759;28;20059;-83
2023/02/06 18:58:15;;;;;;;;;;;;;;;;;;10589371;28;19923;-84
2023/02/06 19:03:16;;;;;;;13.23;6.75;;;;;;;;;;10598718;28;19939;-84
2023/02/06 19:08:18;;;;;;;;;;;;;;;;;;10592741;28;20024;-84
2023/02/06 19:13:19;;;;;;;9.20;5.95;;;;;;;;;;10590906;28;20002;-84
2023/02/06 19:18:20;;;;;;;10.05;6.03;;;;;;;;;;10587707;28;20034;-83
2023/02/06 19:23:21;;;;;;;9.25;5.13;;;;;;;;;;10588286;28;20047;-83
2023/02/06 19:28:22;;;;;;;;;;;;;;;;;;10594964;28;20028;-84
2023/02/06 19:33:24;;;;;;;9.77;6.15;;;;;;;;;;10592044;28;19908;-84
2023/02/06 19:38:25;;;;;;;8.30;5.75;;;;;;;;;;10592060;28;20023;-84
2023/02/06 19:43:26;;;;;;;11.32;7.45;;;;;;;;;;10597293;28;20051;-84
2023/02/06 19:48:27;;;;;;;;;;;;;;;;;;10591529;28;20365;-84
2023/02/06 19:53:29;;;;;;;9.65;5.90;;;;;;;;;;10591698;28;19932;-83
2023/02/06 19:58:31;;;;;;;9.20;6.53;;;;;;;;;;10597887;28;20030;-83
2023/02/06 20:03:32;;;;;;;12.32;7.35;;;;;;;;;;10613269;28;20020;-84
2023/02/06 20:08:34;;;;;;;8.57;5.88;;;;;;;;;;10621446;28;20055;-83
2023/02/06 20:13:34;;;;;;;;;;;;;;;;;;10592866;28;20028;-83
2023/02/06 20:18:36;;;;;;;9.60;7.03;;;;;;;;;;10587243;28;19904;-83
